Time;durP1;ratioP1;P1;durP2;ratioP2;P2;SDS_P1;SDS_P2;PMS_P1;PMS_P2;Temp;Humidity;BMP_temperature;BMP_pressure;BME280_temperature;BME280_humidity;BME280_pressure;Samples;Min_cycle;Max_cycle;Signal;HPM_P1;HPM_P2
2021/01/20 00:00:06;;;;;;;29.42;21.52;;;;;;;1.56;78.87;99561.03;125392;1127;25039;-75
2021/01/20 00:02:54;;;;;;;25.80;20.30;;;;;;;1.52;78.87;99562.25;125368;1130;22453;-76
2021/01/20 00:05:23;;;;;;;24.85;21.52;;;;;;;1.51;79.62;99561.43;125362;1130;22447;-76
2021/01/20 00:07:51;;;;;;;30.55;24.95;;;;;;;1.52;78.97;99567.45;125405;1129;22451;-75
2021/01/20 00:10:19;;;;;;;34.08;24.07;;;;;;;1.51;79.41;99561.43;125395;1127;22457;-76
2021/01/20 00:12:48;;;;;;;30.80;22.93;;;;;;;1.52;79.56;99557.86;125333;1127;22452;-75
2021/01/20 00:15:21;;;;;;;28.98;22.65;;;;;;;1.54;78.82;99560.35;125354;1127;22451;-75
2021/01/20 00:17:50;;;;;;;27.95;22.35;;;;;;;1.57;79.44;99560.09;125374;1128;22446;-74
2021/01/20 00:20:19;;;;;;;28.85;21.85;;;;;;;1.63;79.19;99569.97;125330;1127;23234;-74
2021/01/20 00:22:48;;;;;;;25.68;20.30;;;;;;;1.69;79.67;99561.64;125373;1127;22548;-75
2021/01/20 00:25:21;;;;;;;25.57;21.10;;;;;;;1.74;79.37;99566.48;125403;1130;22502;-74
2021/01/20 00:27:48;;;;;;;26.45;19.02;;;;;;;1.79;79.91;99564.29;125430;1127;25113;-74
2021/01/20 00:30:17;;;;;;;25.12;20.43;;;;;;;1.80;79.31;99566.78;125338;1127;22448;-75
2021/01/20 00:32:45;;;;;;;23.45;20.60;;;;;;;1.83;79.65;99570.88;125338;1129;22650;-75
2021/01/20 00:35:13;;;;;;;24.12;19.75;;;;;;;1.85;78.90;99579.40;125364;1127;24396;-75
2021/01/20 00:37:41;;;;;;;28.73;22.58;;;;;;;1.87;79.25;99575.72;125362;1127;25030;-75
2021/01/20 00:40:10;;;;;;;25.57;19.60;;;;;;;1.83;78.72;99565.67;125319;1127;22463;-75
2021/01/20 00:42:38;;;;;;;25.60;20.23;;;;;;;1.75;79.36;99566.33;125371;1127;22526;-75
2021/01/20 00:45:06;;;;;;;25.27;19.53;;;;;;;1.74;79.07;99572.50;125337;1127;23317;-75
2021/01/20 00:47:35;;;;;;;25.12;19.42;;;;;;;1.80;79.20;99571.14;125385;1127;22460;-74
2021/01/20 00:50:05;;;;;;;25.20;18.48;;;;;;;1.83;79.74;99566.52;125330;1127;22487;-75
2021/01/20 00:52:33;;;;;;;21.83;19.03;;;;;;;1.87;79.15;99567.08;125414;1128;22454;-75
2021/01/20 00:55:02;;;;;;;22.75;18.25;;;;;;;1.84;79.18;99570.77;125389;1130;22445;-75
2021/01/20 00:57:31;;;;;;;24.18;19.12;;;;;;;1.79;78.66;99567.71;125406;1127;24575;-74
2021/01/20 00:59:59;;;;;;;20.15;17.65;;;;;;;1.80;79.62;99565.93;125355;1126;22461;-74
2021/01/20 01:02:29;;;;;;;20.75;15.90;;;;;;;1.81;79.73;99564.99;125341;1129;23230;-74
2021/01/20 01:04:58;;;;;;;19.15;17.05;;;;;;;1.78;78.74;99563.47;125340;1127;24565;-75
2021/01/20 01:07:26;;;;;;;20.70;17.23;;;;;;;1.78;79.77;99563.47;125367;1127;22457;-75
2021/01/20 01:09:54;;;;;;;25.03;17.33;;;;;;;1.79;79.43;99565.11;125410;1127;22529;-75
2021/01/20 01:12:31;;;;;;;19.87;17.70;;;;;;;1.79;79.27;99554.69;125348;1127;24259;-75
2021/01/20 01:15:00;;;;;;;20.37;16.37;;;;;;;1.80;79.83;99551.16;125398;1127;22551;-75
2021/01/20 01:17:33;;;;;;;17.35;15.55;;;;;;;1.80;78.91;99558.97;125343;1129;23390;-75
2021/01/20 01:20:03;;;;;;;19.00;15.85;;;;;;;1.79;79.75;99561.69;125318;1127;24268;-75
2021/01/20 01:22:31;;;;;;;19.12;16.70;;;;;;;1.81;79.18;99557.19;125453;1127;22455;-75
2021/01/20 01:24:59;;;;;;;20.50;16.70;;;;;;;1.81;79.57;99558.00;125366;1129;22463;-75
2021/01/20 01:27:27;;;;;;;23.05;17.35;;;;;;;1.83;79.31;99556.11;125405;1129;22952;-75
2021/01/20 01:29:59;;;;;;;18.42;15.38;;;;;;;1.86;79.50;99558.41;125337;1127;22463;-75
2021/01/20 01:32:34;;;;;;;20.77;16.23;;;;;;;1.88;79.55;99548.70;125401;1127;24313;-75
2021/01/20 01:35:05;;;;;;;17.62;15.68;;;;;;;1.88;80.01;99559.13;125426;1127;22463;-76
2021/01/20 01:37:33;;;;;;;19.13;15.30;;;;;;;1.89;79.20;99549.52;125380;1130;22446;-75
2021/01/20 01:40:21;;;;;;;21.48;16.65;;;;;;;1.81;79.66;99558.00;125314;1128;22460;-76
2021/01/20 01:43:28;;;;;;;22.35;16.67;;;;;;;1.79;79.95;99549.48;125135;1131;22446;-75
2021/01/20 01:46:25;;;;;;;18.48;15.32;;;;;;;1.80;79.28;99556.36;125282;1127;25059;-75
2021/01/20 01:49:05;;;;;;;18.13;16.17;;;;;;;1.83;80.09;99555.25;125294;1130;22446;-75
2021/01/20 01:51:34;;;;;;;21.60;17.05;;;;;;;1.84;79.45;99557.74;125324;1129;22460;-75
2021/01/20 01:54:41;;;;;;;19.70;17.10;;;;;;;1.86;80.35;99563.62;125105;1130;22502;-75
2021/01/20 01:57:29;;;;;;;19.77;16.27;;;;;;;1.90;79.77;99556.41;125115;1129;23947;-75
2021/01/20 01:59:58;;;;;;;21.17;16.70;;;;;;;1.92;79.50;99557.08;125000;1128;24241;-75
2021/01/20 02:02:42;;;;;;;22.10;17.10;;;;;;;1.92;79.80;99551.05;124930;1128;24585;-76
2021/01/20 02:05:15;;;;;;;19.10;16.57;;;;;;;1.94;80.21;99562.17;124942;1130;22436;-76
2021/01/20 02:07:46;;;;;;;20.77;15.95;;;;;;;1.94;79.37;99557.78;124977;1130;22909;-76
2021/01/20 02:10:15;;;;;;;23.47;19.15;;;;;;;1.95;79.54;99556.00;125039;1129;24556;-76
2021/01/20 02:13:01;;;;;;;21.73;17.00;;;;;;;1.93;80.27;99555.29;124882;1130;22454;-76
2021/01/20 02:16:20;;;;;;;23.40;17.87;;;;;;;1.92;79.77;99557.08;125302;1129;22454;-76
2021/01/20 02:18:53;;;;;;;21.90;17.57;;;;;;;1.95;80.42;99550.78;124871;1132;23337;-76
2021/01/20 02:21:33;;;;;;;19.82;15.95;;;;;;;2.00;80.41;99556.41;124866;1131;23335;-76
2021/01/20 02:25:28;;;;;;;20.72;15.68;;;;;;;2.01;80.30;99558.08;124871;1133;22445;-76
2021/01/20 02:28:19;;;;;;;22.02;17.90;;;;;;;1.96;80.07;99565.45;124924;1130;22725;-76
2021/01/20 02:31:16;;;;;;;22.10;16.87;;;;;;;1.98;80.65;99571.36;124966;1130;22446;-76
2021/01/20 02:33:46;;;;;;;21.40;16.65;;;;;;;2.05;79.97;99564.66;124925;1130;22440;-76
2021/01/20 02:36:23;;;;;;;17.62;14.47;;;;;;;2.10;79.91;99568.53;124893;1132;22504;-75
2021/01/20 02:39:12;;;;;;;18.32;15.80;;;;;;;2.15;79.77;99573.33;124843;1133;23456;-74
2021/01/20 02:41:41;;;;;;;15.10;13.03;;;;;;;2.21;80.42;99571.98;124881;1130;22470;-76
2021/01/20 02:44:21;;;;;;;19.30;14.90;;;;;;;2.23;80.51;99570.05;124939;1130;22448;-75
2021/01/20 02:47:16;;;;;;;18.07;14.38;;;;;;;2.18;80.49;99570.47;124748;1133;22460;-74
2021/01/20 02:49:56;;;;;;;21.73;15.88;;;;;;;2.15;79.63;99568.13;124908;1130;22457;-75
2021/01/20 02:52:37;;;;;;;15.40;13.20;;;;;;;2.16;80.08;99566.33;124937;1130;22438;-75
2021/01/20 02:55:28;;;;;;;17.40;13.70;;;;;;;2.20;80.32;99567.71;125300;1130;22463;-75
2021/01/20 02:58:30;;;;;;;16.93;15.10;;;;;;;2.24;80.83;99567.33;125345;1130;22451;-75
2021/01/20 03:01:29;;;;;;;14.80;13.30;;;;;;;2.26;80.24;99562.79;125414;1127;22446;-76
2021/01/20 03:04:01;;;;;;;14.98;13.25;;;;;;;2.28;80.34;99566.09;125476;1127;24310;-75
2021/01/20 03:06:30;;;;;;;17.05;13.58;;;;;;;2.33;80.93;99571.75;125404;1127;25080;-75
2021/01/20 03:08:59;;;;;;;18.37;14.55;;;;;;;2.39;80.34;99565.16;125413;1127;22499;-75
2021/01/20 03:11:28;;;;;;;18.48;14.25;;;;;;;2.42;80.26;99566.67;125292;1127;22445;-75
2021/01/20 03:13:56;;;;;;;16.23;14.45;;;;;;;2.45;80.10;99563.80;125354;1127;22460;-75
2021/01/20 03:16:28;;;;;;;14.75;13.25;;;;;;;2.48;79.92;99564.34;125385;1131;22509;-75
2021/01/20 03:18:56;;;;;;;15.88;13.93;;;;;;;2.46;80.40;99558.44;125355;1127;25136;-75
2021/01/20 03:21:26;;;;;;;15.72;13.20;;;;;;;2.47;80.04;99559.28;125391;1130;22461;-76
2021/01/20 03:23:53;;;;;;;16.57;13.60;;;;;;;2.52;80.27;99563.11;125360;1127;22545;-74
2021/01/20 03:26:21;;;;;;;16.12;14.55;;;;;;;2.59;80.85;99552.97;125363;1127;22460;-74
2021/01/20 03:28:49;;;;;;;17.15;15.40;;;;;;;2.64;80.67;99558.61;125384;1127;22446;-74
2021/01/20 03:31:17;;;;;;;19.42;17.42;;;;;;;2.65;80.71;99559.43;125417;1127;24789;-74
2021/01/20 03:33:45;;;;;;;22.20;19.90;;;;;;;2.64;80.64;99566.44;125384;1127;22477;-74
2021/01/20 03:36:14;;;;;;;21.20;19.25;;;;;;;2.69;80.85;99558.19;125365;1127;24661;-74
2021/01/20 03:38:42;;;;;;;21.97;19.60;;;;;;;2.73;80.89;99564.77;125324;1127;24268;-75
2021/01/20 03:41:10;;;;;;;23.83;21.52;;;;;;;2.75;80.14;99563.69;125260;1129;22902;-74
2021/01/20 03:43:38;;;;;;;22.65;20.55;;;;;;;2.75;80.62;99560.26;125372;1130;22463;-75
2021/01/20 03:46:06;;;;;;;26.00;23.42;;;;;;;2.72;80.64;99563.95;125405;1127;22454;-74
2021/01/20 03:48:34;;;;;;;26.87;24.27;;;;;;;2.72;80.00;99565.74;125389;1127;22448;-74
2021/01/20 03:51:04;;;;;;;23.75;21.42;;;;;;;2.75;80.45;99561.08;125344;1131;22443;-75
2021/01/20 03:53:32;;;;;;;23.85;21.60;;;;;;;2.82;81.15;99569.17;125321;1128;22451;-75
2021/01/20 03:56:00;;;;;;;24.77;22.48;;;;;;;2.88;80.27;99559.98;125399;1127;22451;-75
2021/01/20 03:58:27;;;;;;;26.05;23.57;;;;;;;2.91;80.88;99570.97;125395;1127;22442;-75
2021/01/20 04:00:55;;;;;;;26.10;23.73;;;;;;;2.91;80.07;99568.36;125306;1127;22451;-74
2021/01/20 04:03:24;;;;;;;27.58;24.77;;;;;;;2.89;80.55;99565.05;125311;1127;22548;-74
2021/01/20 04:06:16;;;;;;;25.40;22.98;;;;;;;2.90;80.95;99561.50;125364;1130;22446;-75
2021/01/20 04:08:46;;;;;;;26.68;23.87;;;;;;;2.93;80.32;99563.84;125408;1127;22453;-75
2021/01/20 04:11:14;;;;;;;23.73;21.33;;;;;;;2.99;80.62;99567.66;125371;1127;22443;-75
2021/01/20 04:13:42;;;;;;;22.75;20.37;;;;;;;3.02;80.41;99564.78;125437;1127;22451;-75
2021/01/20 04:16:10;;;;;;;25.35;22.75;;;;;;;3.00;79.98;99566.69;125387;1126;22545;-75
2021/01/20 04:18:39;;;;;;;26.10;23.10;;;;;;;3.02;80.39;99564.78;125354;1129;22515;-75
2021/01/20 04:21:07;;;;;;;24.65;22.15;;;;;;;3.05;80.30;99567.11;125408;1127;22444;-75
2021/01/20 04:23:39;;;;;;;22.48;20.17;;;;;;;3.10;80.14;99567.53;125410;1127;22984;-75
2021/01/20 04:26:08;;;;;;;21.75;19.65;;;;;;;3.11;80.55;99571.78;125386;1127;24555;-74
2021/01/20 04:28:36;;;;;;;19.55;17.55;;;;;;;3.11;80.35;99566.56;125454;1127;22460;-74
2021/01/20 04:31:05;;;;;;;20.60;18.65;;;;;;;3.09;79.98;99565.86;125368;1127;22446;-75
2021/01/20 04:33:33;;;;;;;21.35;19.12;;;;;;;3.10;80.01;99559.70;125390;1127;22545;-75
2021/01/20 04:36:02;;;;;;;21.68;19.37;;;;;;;3.13;79.94;99564.62;125391;1127;24569;-75
2021/01/20 04:38:30;;;;;;;23.75;21.25;;;;;;;3.16;80.03;99559.13;125370;1127;24552;-75
2021/01/20 04:40:58;;;;;;;23.05;20.55;;;;;;;3.21;80.11;99569.16;125375;1127;22513;-75
2021/01/20 04:43:26;;;;;;;21.90;19.62;;;;;;;3.22;80.82;99569.01;125339;1127;25025;-75
2021/01/20 04:45:54;;;;;;;23.52;20.65;;;;;;;3.20;80.15;99567.49;125406;1129;23325;-75
2021/01/20 04:48:31;;;;;;;24.18;21.57;;;;;;;3.17;80.07;99567.80;125372;1127;22454;-74
2021/01/20 04:51:05;;;;;;;24.72;20.68;;;;;;;3.18;80.86;99569.44;125396;1130;22548;-75
2021/01/20 04:53:34;;;;;;;24.75;22.17;;;;;;;3.21;80.39;99572.59;125101;1127;24425;-75
2021/01/20 04:56:10;;;;;;;26.27;21.90;;;;;;;3.26;81.07;99570.37;125389;1127;22463;-75
2021/01/20 04:58:39;;;;;;;23.95;21.52;;;;;;;3.29;80.52;99571.88;125366;1127;22446;-75
2021/01/20 05:01:07;;;;;;;25.12;20.82;;;;;;;3.32;80.34;99568.18;125271;1127;22465;-74
2021/01/20 05:03:35;;;;;;;28.92;24.32;;;;;;;3.29;79.97;99570.09;125401;1129;22466;-74
2021/01/20 05:06:04;;;;;;;27.27;24.07;;;;;;;3.27;80.14;99574.65;124990;1127;24658;-74
2021/01/20 05:08:32;;;;;;;27.48;24.57;;;;;;;3.26;80.17;99577.38;125342;1127;22463;-74
2021/01/20 05:11:00;;;;;;;28.67;25.57;;;;;;;3.28;80.10;99576.28;125375;1129;22451;-74
2021/01/20 05:13:31;;;;;;;33.83;26.93;;;;;;;3.31;80.82;99575.19;125320;1131;22454;-74
2021/01/20 05:15:59;;;;;;;25.45;22.67;;;;;;;3.36;80.82;99575.58;125414;1127;22445;-74
2021/01/20 05:18:27;;;;;;;29.82;24.60;;;;;;;3.39;80.59;99577.09;125086;1128;22446;-75
2021/01/20 05:20:55;;;;;;;30.00;22.45;;;;;;;3.37;80.24;99574.63;125324;1127;25073;-74
2021/01/20 05:23:25;;;;;;;25.02;19.80;;;;;;;3.37;80.69;99564.19;125324;1129;22460;-73
2021/01/20 05:25:53;;;;;;;24.40;17.73;;;;;;;3.38;80.35;99578.06;125316;1127;22438;-73
2021/01/20 05:28:29;;;;;;;17.95;14.25;;;;;;;3.41;80.02;99580.39;125345;1130;22446;-75
2021/01/20 05:31:00;;;;;;;19.15;14.70;;;;;;;3.42;80.49;99582.85;125326;1127;25051;-74
2021/01/20 05:33:40;;;;;;;19.10;14.47;;;;;;;3.41;80.09;99580.39;125336;1127;22464;-74
2021/01/20 05:36:13;;;;;;;27.13;17.52;;;;;;;3.37;79.87;99584.26;125417;1127;22454;-74
2021/01/20 05:38:48;;;;;;;24.47;20.52;;;;;;;3.35;80.51;99575.73;125414;1129;22444;-74
2021/01/20 05:41:29;;;;;;;31.25;25.45;;;;;;;3.33;80.57;99585.48;125425;1129;22443;-74
2021/01/20 05:44:12;;;;;;;28.70;23.92;;;;;;;3.31;80.06;99590.85;125444;1127;22451;-74
2021/01/20 05:46:43;;;;;;;35.43;28.13;;;;;;;3.31;79.83;99601.30;125411;1127;22463;-74
2021/01/20 05:49:28;;;;;;;35.15;28.65;;;;;;;3.29;80.23;99596.20;125320;1128;22454;-74
2021/01/20 05:51:57;;;;;;;26.68;23.87;;;;;;;3.26;79.94;99599.08;125312;1127;24265;-74
2021/01/20 05:54:34;;;;;;;40.35;36.05;;;;;;;3.24;80.33;99603.64;125403;1127;22446;-74
2021/01/20 05:57:20;;;;;;;35.13;30.92;;;;;;;3.22;79.85;99612.56;125318;1127;24624;-75
2021/01/20 05:59:51;;;;;;;44.25;35.80;;;;;;;3.18;79.52;99608.59;125440;1127;24584;-75
2021/01/20 06:02:20;;;;;;;45.98;35.85;;;;;;;3.16;79.50;99608.70;125453;1127;22459;-76
2021/01/20 06:04:49;;;;;;;45.10;40.08;;;;;;;3.11;79.68;99617.94;125347;1129;22676;-76
2021/01/20 06:07:17;;;;;;;34.60;30.08;;;;;;;3.05;79.52;99612.30;125386;1129;22443;-76
2021/01/20 06:09:46;;;;;;;38.58;32.73;;;;;;;3.00;80.04;99618.88;125345;1129;22466;-76
2021/01/20 06:12:14;;;;;;;47.65;37.67;;;;;;;2.95;79.75;99616.69;125414;1127;22464;-75
2021/01/20 06:14:44;;;;;;;63.23;41.05;;;;;;;2.96;79.96;99617.50;125339;1130;22504;-76
2021/01/20 06:17:21;;;;;;;63.30;39.35;;;;;;;2.97;80.13;99616.56;125285;1127;24545;-75
2021/01/20 06:19:54;;;;;;;38.33;26.70;;;;;;;2.96;79.96;99618.33;125444;1127;22538;-75
2021/01/20 06:22:26;;;;;;;42.83;28.60;;;;;;;3.00;80.45;99621.48;125419;1126;22440;-76
2021/01/20 06:25:10;;;;;;;36.17;26.37;;;;;;;2.99;80.42;99619.84;125464;1126;22489;-75
2021/01/20 06:27:55;;;;;;;98.55;70.97;;;;;;;2.98;80.48;99612.98;125369;1127;23384;-74
2021/01/20 06:30:30;;;;;;;125.55;85.77;;;;;;;2.96;79.72;99622.72;125392;1127;22450;-74
2021/01/20 06:32:59;;;;;;;80.55;45.43;;;;;;;2.95;80.47;99623.70;125475;1129;22448;-74
2021/01/20 06:35:57;;;;;;;96.65;51.35;;;;;;;2.98;79.88;99629.46;125450;1127;22450;-74
2021/01/20 06:38:28;;;;;;;103.40;60.78;;;;;;;3.00;79.77;99619.72;124891;1130;22376;-74
2021/01/20 06:41:12;;;;;;;106.52;60.58;;;;;;;3.01;79.88;99623.97;124888;1130;22436;-74
2021/01/20 06:43:46;;;;;;;84.47;49.05;;;;;;;3.00;80.33;99624.94;124907;1130;23296;-74
2021/01/20 06:46:27;;;;;;;50.23;35.80;;;;;;;2.98;79.92;99636.47;124956;1130;22452;-74
2021/01/20 06:48:56;;;;;;;57.60;31.15;;;;;;;2.94;80.16;99635.09;124934;1130;22426;-74
2021/01/20 06:51:29;;;;;;;44.20;32.65;;;;;;;2.91;79.67;99633.58;124872;1129;22454;-74
2021/01/20 06:54:00;;;;;;;40.47;28.07;;;;;;;2.89;80.16;99643.31;124878;1130;22423;-74
2021/01/20 06:56:33;;;;;;;34.13;26.50;;;;;;;2.88;80.46;99640.86;124902;1129;22469;-74
2021/01/20 06:59:28;;;;;;;39.37;29.40;;;;;;;2.86;79.72;99632.33;124977;1130;22511;-74
2021/01/20 07:02:02;;;;;;;44.13;29.65;;;;;;;2.83;80.36;99631.66;124933;1129;22618;-74
2021/01/20 07:04:37;;;;;;;41.18;32.58;;;;;;;2.87;79.97;99628.78;124892;1130;22836;-75
2021/01/20 07:07:12;;;;;;;46.28;37.28;;;;;;;2.89;80.67;99629.45;124897;1130;22511;-75
2021/01/20 07:09:49;;;;;;;52.27;42.20;;;;;;;2.91;80.43;99624.94;124921;1130;25072;-75
2021/01/20 07:12:24;;;;;;;54.15;41.55;;;;;;;2.93;80.51;99633.43;124842;1129;22456;-75
2021/01/20 07:14:54;;;;;;;58.20;42.93;;;;;;;2.94;80.81;99627.27;125055;1130;22467;-75
2021/01/20 07:17:23;;;;;;;49.38;35.83;;;;;;;2.95;79.99;99623.70;125378;1127;22548;-75
2021/01/20 07:19:51;;;;;;;53.38;39.83;;;;;;;2.94;80.57;99622.05;125048;1130;22551;-75
2021/01/20 07:22:20;;;;;;;41.45;33.58;;;;;;;2.97;80.19;99630.43;125361;1128;22566;-75
2021/01/20 07:24:48;;;;;;;39.20;29.25;;;;;;;3.01;80.36;99630.98;125349;1127;23307;-76
2021/01/20 07:27:18;;;;;;;35.33;27.62;;;;;;;2.99;79.80;99628.49;125662;1126;22958;-77
2021/01/20 07:29:47;;;;;;;41.25;29.92;;;;;;;3.01;80.26;99629.19;125245;1129;22443;-77
2021/01/20 07:32:15;;;;;;;37.50;27.40;;;;;;;3.05;79.90;99643.61;125582;1130;22451;-78
2021/01/20 07:34:44;;;;;;;37.98;30.45;;;;;;;3.14;80.53;99641.97;125318;1129;22580;-76
2021/01/20 07:37:16;;;;;;;41.10;31.30;;;;;;;3.18;79.88;99637.30;125273;1127;22441;-77
2021/01/20 07:39:46;;;;;;;33.38;28.50;;;;;;;3.18;79.89;99639.91;125385;1128;22443;-77
2021/01/20 07:42:15;;;;;;;33.10;28.40;;;;;;;3.14;79.78;99643.77;125590;1127;22451;-76
2021/01/20 07:44:48;;;;;;;34.88;27.62;;;;;;;3.11;79.86;99638.81;125606;1127;22466;-77
2021/01/20 07:47:17;;;;;;;49.58;37.45;;;;;;;3.16;80.17;99639.21;125332;1128;22443;-76
2021/01/20 07:49:54;;;;;;;47.27;39.23;;;;;;;3.21;80.08;99632.63;125281;1129;22466;-77
2021/01/20 07:52:23;;;;;;;40.10;32.48;;;;;;;3.26;79.49;99634.81;125337;1127;22747;-77
2021/01/20 07:54:52;;;;;;;47.53;42.25;;;;;;;3.25;80.05;99647.04;125527;1127;24306;-76
2021/01/20 07:57:21;;;;;;;97.17;76.33;;;;;;;3.25;79.70;99636.59;125363;1127;22922;-76
2021/01/20 08:00:04;;;;;;;152.15;110.32;;;;;;;3.28;79.46;99627.67;125720;1127;22744;-76
2021/01/20 08:02:47;;;;;;;54.98;41.55;;;;;;;3.36;79.59;99627.79;125608;1127;24607;-78
2021/01/20 08:05:16;;;;;;;52.67;39.42;;;;;;;3.44;80.06;99629.73;125084;1130;22451;-75
2021/01/20 08:07:45;;;;;;;40.80;34.23;;;;;;;3.53;79.66;99632.33;125388;1127;22441;-76
2021/01/20 08:10:20;;;;;;;52.00;39.42;;;;;;;3.56;79.54;99632.98;125262;1127;22501;-76
2021/01/20 08:12:51;;;;;;;53.85;40.17;;;;;;;3.56;79.72;99628.59;125318;1127;22477;-76
2021/01/20 08:15:20;;;;;;;60.05;40.43;;;;;;;3.61;79.87;99615.95;125338;1130;23348;-76
2021/01/20 08:17:49;;;;;;;46.05;35.73;;;;;;;3.66;78.75;99616.33;125407;1127;22462;-76
2021/01/20 08:20:17;;;;;;;51.88;38.53;;;;;;;3.70;79.22;99607.27;125358;1127;22531;-76
2021/01/20 08:22:46;;;;;;;49.60;37.95;;;;;;;3.72;78.76;99614.95;125326;1127;22443;-76
2021/01/20 08:25:20;;;;;;;44.27;34.20;;;;;;;3.76;78.44;99618.92;125376;1127;22513;-76
2021/01/20 08:27:49;;;;;;;46.20;34.88;;;;;;;3.80;78.58;99609.01;125434;1127;22599;-76
2021/01/20 08:30:34;;;;;;;39.30;31.62;;;;;;;3.80;78.21;99606.39;125373;1129;22638;-78
2021/01/20 08:33:05;;;;;;;44.38;35.88;;;;;;;3.78;78.53;99609.98;125369;1127;22525;-76
2021/01/20 08:35:36;;;;;;;53.48;40.83;;;;;;;3.83;78.86;99608.72;125421;1129;22450;-76
2021/01/20 08:38:06;;;;;;;48.37;36.27;;;;;;;3.89;78.33;99605.55;125401;1127;22462;-76
2021/01/20 08:40:34;;;;;;;47.30;36.40;;;;;;;3.93;78.23;99606.90;125302;1128;22479;-76
2021/01/20 08:43:02;;;;;;;44.67;34.88;;;;;;;3.98;78.23;99609.92;125291;1127;22820;-76
2021/01/20 08:45:44;;;;;;;57.03;42.45;;;;;;;4.00;78.05;99605.39;125593;1127;24562;-76
2021/01/20 08:48:13;;;;;;;47.55;36.38;;;;;;;4.04;78.23;99614.58;125269;1127;22445;-76
2021/01/20 08:50:47;;;;;;;45.38;38.65;;;;;;;4.11;77.85;99614.83;125402;1127;22606;-76
2021/01/20 08:53:27;;;;;;;47.70;35.05;;;;;;;4.05;77.07;99612.78;125279;1130;22460;-76
2021/01/20 08:55:56;;;;;;;54.42;37.73;;;;;;;4.03;77.14;99622.55;125522;1127;22463;-76
2021/01/20 08:58:25;;;;;;;58.83;41.23;;;;;;;4.00;76.93;99624.50;125338;1127;22503;-76
2021/01/20 09:01:02;;;;;;;64.10;47.38;;;;;;;4.01;77.15;99620.91;125319;1127;23304;-76
2021/01/20 09:03:35;;;;;;;74.87;54.10;;;;;;;4.08;77.10;99628.18;125406;1127;23279;-76
2021/01/20 09:06:15;;;;;;;75.90;51.42;;;;;;;4.12;77.11;99630.34;125395;1127;24574;-76
2021/01/20 09:08:44;;;;;;;60.12;45.23;;;;;;;4.15;76.88;99632.68;125416;1127;22443;-76
2021/01/20 09:11:12;;;;;;;72.08;52.88;;;;;;;4.13;77.03;99625.94;125400;1127;22472;-76
2021/01/20 09:13:42;;;;;;;55.70;45.67;;;;;;;4.14;76.76;99635.45;125494;1127;22427;-76
2021/01/20 09:16:10;;;;;;;62.62;48.73;;;;;;;4.15;76.73;99635.30;125341;1127;22532;-76
2021/01/20 09:18:39;;;;;;;55.10;42.65;;;;;;;4.14;77.10;99640.68;125380;1127;22442;-76
2021/01/20 09:21:08;;;;;;;51.68;40.40;;;;;;;4.18;77.40;99642.03;125384;1127;22445;-77
2021/01/20 09:23:36;;;;;;;52.20;37.65;;;;;;;4.18;76.49;99637.63;125299;1126;24415;-75
2021/01/20 09:26:04;;;;;;;45.48;36.13;;;;;;;4.24;76.83;99634.44;125319;1127;22428;-76
2021/01/20 09:28:32;;;;;;;43.58;36.08;;;;;;;4.32;76.55;99628.47;125332;1127;22440;-78
2021/01/20 09:31:00;;;;;;;51.13;41.45;;;;;;;4.37;76.60;99630.67;125367;1130;22440;-77
2021/01/20 09:33:28;;;;;;;59.35;48.40;;;;;;;4.44;76.45;99631.73;125673;1126;24377;-77
2021/01/20 09:35:56;;;;;;;48.08;42.75;;;;;;;4.48;76.19;99627.84;125417;1127;22442;-77
2021/01/20 09:38:24;;;;;;;47.27;39.63;;;;;;;4.51;76.58;99632.79;125433;1127;22440;-76
2021/01/20 09:40:55;;;;;;;52.83;41.50;;;;;;;4.58;76.87;99625.17;125393;1126;22445;-77
2021/01/20 09:43:23;;;;;;;56.20;46.45;;;;;;;4.64;76.58;99625.41;125417;1130;22457;-77
2021/01/20 09:45:52;;;;;;;56.87;49.47;;;;;;;4.70;76.55;99621.39;125625;1127;22443;-77
2021/01/20 09:48:21;;;;;;;56.50;46.33;;;;;;;4.75;76.30;99624.38;125380;1128;22452;-77
2021/01/20 09:50:50;;;;;;;56.00;43.23;;;;;;;4.84;76.59;99623.49;125650;1127;24231;-77
2021/01/20 09:53:18;;;;;;;50.43;39.50;;;;;;;4.91;75.61;99621.10;125430;1126;24262;-76
2021/01/20 09:55:49;;;;;;;56.15;40.55;;;;;;;4.92;75.46;99622.73;125337;1130;22541;-77
2021/01/20 09:58:17;;;;;;;57.88;44.18;;;;;;;4.91;75.15;99619.30;125364;1130;22444;-77
2021/01/20 10:00:45;;;;;;;61.75;45.78;;;;;;;4.90;74.96;99612.44;125421;1127;22440;-77
2021/01/20 10:03:13;;;;;;;53.65;40.85;;;;;;;4.89;74.83;99615.19;125433;1127;22437;-77
2021/01/20 10:05:42;;;;;;;51.20;39.13;;;;;;;4.90;74.87;99609.00;125457;1127;22444;-77
2021/01/20 10:08:10;;;;;;;43.73;34.53;;;;;;;4.91;74.83;99605.40;125440;1126;22444;-77
2021/01/20 10:10:38;;;;;;;52.80;37.98;;;;;;;4.95;74.67;99604.13;125394;1127;24565;-77
2021/01/20 10:13:07;;;;;;;48.10;39.98;;;;;;;5.03;75.14;99611.22;125548;1129;22442;-76
2021/01/20 10:15:38;;;;;;;51.00;39.08;;;;;;;5.09;75.21;99600.97;125390;1130;22445;-77
2021/01/20 10:18:07;;;;;;;52.50;40.40;;;;;;;5.24;75.12;99601.27;125397;1126;22500;-77
2021/01/20 10:20:35;;;;;;;44.58;35.43;;;;;;;5.46;75.58;99606.98;125376;1127;22445;-77
2021/01/20 10:23:04;;;;;;;44.58;34.65;;;;;;;5.62;75.21;99597.43;125419;1130;22832;-77
2021/01/20 10:25:32;;;;;;;45.12;31.60;;;;;;;5.68;73.82;99595.19;125595;1127;22454;-77
2021/01/20 10:28:01;;;;;;;38.45;31.37;;;;;;;5.66;73.79;99593.55;125956;1126;22514;-77
2021/01/20 10:30:30;;;;;;;45.48;33.08;;;;;;;5.81;74.41;99587.72;125406;1127;22753;-77
2021/01/20 10:33:00;;;;;;;44.33;31.40;;;;;;;6.07;74.20;99595.59;125605;1129;22680;-77
2021/01/20 10:35:28;;;;;;;36.28;27.77;;;;;;;6.37;74.39;99596.85;125604;1130;22460;-76
2021/01/20 10:37:57;;;;;;;34.85;27.35;;;;;;;6.62;73.26;99584.60;125327;1129;22528;-77
2021/01/20 10:40:26;;;;;;;36.38;29.07;;;;;;;6.87;73.07;99584.66;125428;1128;22466;-76
2021/01/20 10:42:54;;;;;;;40.20;30.85;;;;;;;7.16;72.66;99581.53;125386;1127;24556;-76
2021/01/20 10:45:22;;;;;;;39.45;29.77;;;;;;;7.29;71.38;99584.48;125357;1127;22907;-76
2021/01/20 10:47:59;;;;;;;38.58;29.95;;;;;;;7.41;71.19;99591.05;125327;1126;22426;-76
2021/01/20 10:50:27;;;;;;;45.92;32.95;;;;;;;7.54;70.44;99580.04;125392;1126;22542;-75
2021/01/20 10:52:56;;;;;;;47.23;35.45;;;;;;;7.68;70.58;99573.27;125679;1130;22449;-76
2021/01/20 10:55:24;;;;;;;47.25;32.30;;;;;;;8.07;70.81;99589.10;125500;1127;22494;-75
2021/01/20 10:57:52;;;;;;;35.33;30.05;;;;;;;8.54;70.16;99569.02;125514;1129;22442;-77
2021/01/20 11:00:21;;;;;;;37.33;29.57;;;;;;;9.02;69.16;99569.66;125962;1127;22440;-77
2021/01/20 11:02:49;;;;;;;47.17;36.73;;;;;;;9.50;68.88;99567.61;125799;1130;22433;-77
2021/01/20 11:05:17;;;;;;;39.15;29.48;;;;;;;10.40;70.96;99577.98;125609;1127;22473;-76
2021/01/20 11:07:45;;;;;;;37.42;29.07;;;;;;;11.43;70.25;99571.44;125556;1127;24609;-75
2021/01/20 11:10:13;;;;;;;30.65;23.80;;;;;;;12.18;66.01;99564.56;125497;1126;24639;-76
2021/01/20 11:12:41;;;;;;;25.50;21.87;;;;;;;12.40;62.55;99570.56;125521;1127;24600;-76
2021/01/20 11:15:10;;;;;;;21.85;17.85;;;;;;;12.72;60.26;99573.49;125468;1126;24582;-75
2021/01/20 11:17:39;;;;;;;26.17;22.02;;;;;;;13.14;60.41;99569.69;125461;1127;22454;-77
2021/01/20 11:20:08;;;;;;;24.70;20.00;;;;;;;13.44;57.17;99560.53;125886;1130;22450;-76
2021/01/20 11:22:36;;;;;;;19.67;16.45;;;;;;;12.87;54.10;99557.43;125500;1130;23139;-77
2021/01/20 11:25:06;;;;;;;30.30;24.92;;;;;;;11.88;54.40;99558.72;125455;1127;22448;-76
2021/01/20 11:27:36;;;;;;;30.43;23.42;;;;;;;11.11;55.27;99562.22;125536;1127;22440;-76
2021/01/20 11:30:06;;;;;;;23.62;20.02;;;;;;;10.27;55.93;99560.16;125604;1128;22895;-77
2021/01/20 11:32:33;;;;;;;31.97;23.98;;;;;;;9.74;57.66;99559.44;125518;1127;22917;-76
2021/01/20 11:35:03;;;;;;;38.58;28.15;;;;;;;9.36;58.13;99562.14;125524;1126;24616;-76
2021/01/20 11:37:32;;;;;;;36.33;26.75;;;;;;;8.94;58.39;99557.38;125541;1127;22462;-77
2021/01/20 11:40:03;;;;;;;39.13;30.02;;;;;;;8.60;59.36;99555.98;125484;1127;24590;-76